Hlavní strana
METAR-TAF:

METAR-TAF

Letiště :

Letiště Orio al Serio

Bergamo, Itálie

zeměpisná šířka: 45-40N, zeměpisná délka: 009-42E, výška: 238 m

Aktuální stav počasí

Zpráva byla vytvořena před 24 minutami, v 16:50 UTC
Západní vítr 1 kt
Teplota 6°C
Vlhkost vzduchu 81%
Tlak 1024 hPa
Viditelnost 10 km a více
Žádná oblačnost pod 1500 m, nevyskytují se cumulonimby.

METAR: LIME 171650Z 27001KT CAVOK 06/03 Q1024 NOSIG

Čas: 18:14 (17:14 UTC)

Předpověď počasí

Zpráva byla vytvořena před 6 hodinami a 14 minutami, v 11:00 UTC
Předpověď platná od 17 v 12 UTC do 18 v 12 UTC
vítr z různých směrů 5 kt
Viditelnost 10 km a více
Polojasno ve výšce 5000 ft

TAF: LIME 171100Z 1712/1812 VRB05KT 9999 SCT050

Stav a předpovědi počasí z více než 4 000 letišť (zprávy METAR a TAF).

Červené a žluté tečky na mapě představují dostupné meteorologické stanice.

Když kurzor umístíte na tečku, zobrazí se název stanice.

Pak kliknutím zobrazíte stav a předpověď počasí.

Chcete-li změnit mapu, kliknutím na zelené tlačítko se znaménkem +mapu přiblížíte, kliknutím na zelené tlačítko se znaménkem – mapu oddálíte a kliknutím na zelené šipky přejdete na sousední mapy.


METAR-TAF: